Flight Track Log - Related Links

Times and Time Zones

All times are in EDT time to prevent confusion due to time zone crossing. See the SKW6345 flight status page for this flight to view local times or setup timezone preferences in your user account.

Time Position Orientation Groundspeed Altitude Reporting Facility
EDT Latitude Longitude Course Direction KTS MPH feet Rate Location/Type
Sun 07:37:40 PM 33.9500 -118.4667 335° Northwest 171 197 2,000  Level Southern California TRACON
Sun 07:38:40 PM 33.9500 -118.5333 270° West 187 215 3,600 1,557 Climbing Southern California TRACON
Sun 07:39:51 PM 33.9861 -118.5922 306° West 196 226 5,400 1,534 Climbing Los Angeles Center
Sun 07:40:53 PM 34.0331 -118.6272 328° Northwest 195 224 7,000 823 Climbing Los Angeles Center
Sun 07:41:55 PM 34.0950 -118.6397 351° North 227 261 7,100 293 Climbing Los Angeles Center
Sun 07:42:56 PM 34.1653 -118.6572 348° North 243 280 7,600 1,220 Climbing Los Angeles Center
Sun 07:43:00 PM 34.3380 -118.6118 335° Northwest  Level FlightAware Approximate
Sun 07:43:58 PM 34.2267 -118.6708 350° North 230 265 9,600  Level Los Angeles Center
Sun 07:45:00 PM 34.2792 -118.6819 350° North 198 228 11,400 1,268 Climbing Los Angeles Center
Sun 07:46:01 PM 34.3325 -118.6925 351° North 194 223 12,200 1,171 Climbing Los Angeles Center
Sun 07:47:03 PM 34.3914 -118.7044 350° North 210 242 13,800 1,065 Climbing Los Angeles Center
Sun 07:48:05 PM 34.4531 -118.7208 348° North 201 231 14,400 871 Climbing Los Angeles Center
Sun 07:49:07 PM 34.5147 -118.7389 346° North 210 242 15,600 1,073 Climbing Los Angeles Center
Sun 07:50:08 PM 34.5706 -118.7544 347° North 207 238 16,600 976 Climbing Los Angeles Center
Sun 07:51:10 PM 34.6256 -118.7672 349° North 203 234 17,600 823 Climbing Los Angeles Center
Sun 07:52:12 PM 34.6811 -118.7797 350° North 203 234 18,300 629 Climbing Los Angeles Center
Sun 07:53:14 PM 34.7403 -118.7906 351° North 212 244 18,900 677 Climbing Los Angeles Center
Sun 07:54:16 PM 34.8011 -118.8008 352° North 218 251 19,700 823 Climbing Los Angeles Center
Sun 07:55:18 PM 34.8714 -118.8158 350° North 213 245 20,600 683 Climbing Los Angeles Center
Sun 07:56:19 PM 34.9239 -118.8242 353° North 213 245 21,100 585 Climbing Los Angeles Center
Sun 07:57:21 PM 34.9839 -118.8369 350° North 215 247 21,800 484 Climbing Los Angeles Center
Sun 07:58:23 PM 35.0572 -118.8514 351° North 222 255 22,100 145 Climbing Los Angeles Center
Sun 07:59:25 PM 35.1250 -118.8644 351° North 242 278 22,100  Level Los Angeles Center
Sun 08:00:27 PM 35.1928 -118.8786 350° North 243 280 22,100  Level Los Angeles Center
Sun 08:01:29 PM 35.2581 -118.8917 351° North 242 278 22,100  Level Los Angeles Center
Sun 08:02:31 PM 35.3236 -118.9044 351° North 242 278 22,100  Level Los Angeles Center
Sun 08:03:33 PM 35.3928 -118.9175 351° North 244 281 22,100  Level Los Angeles Center
Sun 08:04:34 PM 35.4717 -118.9328 351° North 243 280 22,100  Level Los Angeles Center
Sun 08:05:36 PM 35.5375 -118.9469 350° North 241 277 22,100  Level Los Angeles Center
Sun 08:06:38 PM 35.6039 -118.9597 351° North 241 277 22,100  Level Los Angeles Center
Sun 08:07:40 PM 35.6703 -118.9733 351° North 242 278 22,100 -677 Level Los Angeles Center
Sun 08:08:42 PM 35.7394 -118.9881 350° North 247 284 20,700 -1,790 Descending Los Angeles Center
Sun 08:09:44 PM 35.8194 -119.0039 351° North 283 326 18,400 -2,565 Descending Los Angeles Center
Sun 08:10:46 PM 35.9192 -119.0250 350° North 296 341 15,400 -2,146 Descending Los Angeles Center
Sun 08:11:47 PM 35.9944 -119.0619 338° Northwest 295 339 14,000 -683 Descending Los Angeles Center
Sun 08:12:49 PM 36.0631 -119.0936 340° North 269 310 14,000  Level Los Angeles Center
Sun 08:13:51 PM 36.1256 -119.1256 338° Northwest 248 285 14,000 -339 Level Los Angeles Center
Sun 08:14:53 PM 36.1881 -119.1544 340° North 241 277 13,300 -1,024 Descending Los Angeles Center
Sun 08:15:54 PM 36.2556 -119.1867 339° North 249 287 11,900 -1,220 Descending Los Angeles Center
Sun 08:16:56 PM 36.3308 -119.2225 339° North 267 307 10,800 -1,065 Descending Los Angeles Center
Sun 08:17:58 PM 36.4200 -119.2639 340° North 279 321 9,700 -871 Descending Los Angeles Center
Sun 08:19:00 PM 36.4911 -119.2972 339° North 279 321 9,000 -780 Descending Los Angeles Center
Sun 08:20:01 PM 36.5542 -119.3406 331° Northwest 281 323 8,100 -1,463 Descending Los Angeles Center
Sun 08:21:03 PM 36.5933 -119.4219 301° West 281 323 6,000 -1,697 Descending Los Angeles Center
Sun 08:22:26 PM 36.6639 -119.5178 313° West 268 308 4,000 -1,500 Descending Oakland Center
Sun 08:23:27 PM 36.7044 -119.5903 305° West 259 298 2,400 -1,279 Descending Oakland Center
Sun 08:24:28 PM 36.7417 -119.6556 305° West 217 250 1,400 -836 Descending Oakland Center
Sun 08:25:29 PM 36.7628 -119.6931 305° West 146 168 700 -492 Descending Oakland Center
Sun 08:26:30 PM 36.7847 -119.7300 307° West 137 158 400 -295 Descending Oakland Center

Login

Don't have an account? Register now (free) for customized features, flight alerts, and more!